createdAt,value
2023-01-18T00:01:59.295Z,11.13
2023-01-18T00:04:26.925Z,11.80
2023-01-18T00:06:54.497Z,9.98
2023-01-18T00:09:22.079Z,9.57
2023-01-18T00:11:50.009Z,8.63
2023-01-18T00:14:19.058Z,7.88
2023-01-18T00:16:46.687Z,7.57
2023-01-18T00:19:14.690Z,9.63
2023-01-18T00:21:46.301Z,8.27
2023-01-18T00:24:14.924Z,8.05
2023-01-18T00:26:44.166Z,5.57
2023-01-18T00:29:12.085Z,7.75
2023-01-18T00:31:41.108Z,8.45
2023-01-18T00:34:09.033Z,11.93
2023-01-18T00:36:36.642Z,7.65
2023-01-18T00:39:04.597Z,8.00
2023-01-18T00:41:32.243Z,8.23
2023-01-18T00:44:00.015Z,8.18
2023-01-18T00:46:28.846Z,6.87
2023-01-18T00:48:59.137Z,9.43
2023-01-18T00:51:27.520Z,7.50
2023-01-18T00:53:55.229Z,8.32
2023-01-18T00:56:23.438Z,10.68
2023-01-18T00:58:51.258Z,9.40
2023-01-18T01:01:19.140Z,7.97
2023-01-18T01:04:04.179Z,6.85
2023-01-18T01:06:47.101Z,9.85
2023-01-18T01:09:16.081Z,9.50
2023-01-18T01:12:05.225Z,7.97
2023-01-18T01:14:51.286Z,6.85
2023-01-18T01:17:36.581Z,8.25
2023-01-18T01:20:21.410Z,6.97
2023-01-18T01:23:07.867Z,7.07
2023-01-18T01:25:54.151Z,13.63
2023-01-18T01:28:21.850Z,7.40
2023-01-18T01:30:49.629Z,5.75
2023-01-18T01:33:18.399Z,6.93
2023-01-18T01:35:46.202Z,5.93
2023-01-18T01:38:15.034Z,6.73
2023-01-18T01:40:43.341Z,9.95
2023-01-18T01:43:13.485Z,9.07
2023-01-18T01:45:41.148Z,6.93
2023-01-18T01:48:10.872Z,6.93
2023-01-18T01:50:40.295Z,7.30
2023-01-18T01:53:07.929Z,7.38
2023-01-18T01:55:39.270Z,9.15
2023-01-18T01:58:09.699Z,6.10
2023-01-18T02:00:37.206Z,7.63
2023-01-18T02:03:05.382Z,7.53
2023-01-18T02:05:34.883Z,5.05
2023-01-18T02:08:03.205Z,4.57
2023-01-18T02:10:31.544Z,9.70
2023-01-18T02:13:01.323Z,3.60
2023-01-18T02:15:32.126Z,4.97
2023-01-18T02:18:08.995Z,4.75
2023-01-18T02:20:51.504Z,5.45
2023-01-18T02:23:28.502Z,8.07
2023-01-18T02:26:08.053Z,6.57
2023-01-18T02:28:38.410Z,5.20
2023-01-18T02:31:11.421Z,6.07
2023-01-18T02:33:44.866Z,4.82
2023-01-18T02:36:17.176Z,6.45
2023-01-18T02:38:46.106Z,7.10
2023-01-18T02:41:17.220Z,7.07
2023-01-18T02:44:04.138Z,6.82
2023-01-18T02:46:33.841Z,6.15
2023-01-18T02:49:06.931Z,6.88
2023-01-18T02:51:34.954Z,8.05
2023-01-18T02:54:03.390Z,8.63
2023-01-18T02:56:35.154Z,5.45
2023-01-18T02:59:07.119Z,6.97
2023-01-18T03:01:36.769Z,7.55
2023-01-18T03:04:06.447Z,7.20
2023-01-18T03:06:34.278Z,7.90
2023-01-18T03:09:02.084Z,4.82
2023-01-18T03:11:35.457Z,8.60
2023-01-18T03:14:08.978Z,7.72
2023-01-18T03:16:44.184Z,4.82
2023-01-18T03:19:32.434Z,6.30
2023-01-18T03:22:01.085Z,5.30
2023-01-18T03:24:28.713Z,5.53
2023-01-18T03:27:17.129Z,8.30
2023-01-18T03:30:04.291Z,5.95
2023-01-18T03:32:51.868Z,6.13
2023-01-18T03:35:19.999Z,7.20
2023-01-18T03:37:48.473Z,6.20
2023-01-18T03:40:18.281Z,7.95
2023-01-18T03:42:49.472Z,7.43
2023-01-18T03:45:22.473Z,8.03
2023-01-18T03:47:51.536Z,7.22
2023-01-18T03:50:19.104Z,7.18
2023-01-18T03:52:49.790Z,7.18
2023-01-18T03:55:20.532Z,8.13
2023-01-18T03:57:50.291Z,7.20
2023-01-18T04:00:18.106Z,8.23
2023-01-18T04:02:46.517Z,8.18
2023-01-18T04:05:15.881Z,7.53
2023-01-18T04:07:43.688Z,7.00
2023-01-18T04:10:11.965Z,7.07
2023-01-18T04:12:39.916Z,4.72
2023-01-18T04:15:07.961Z,11.25
2023-01-18T04:17:36.440Z,7.50
2023-01-18T04:20:04.185Z,7.30
2023-01-18T04:22:37.163Z,8.20
2023-01-18T04:25:04.919Z,8.95
2023-01-18T04:27:32.555Z,7.32
2023-01-18T04:30:00.502Z,8.65
2023-01-18T04:32:28.845Z,7.97
2023-01-18T04:34:56.463Z,7.07
2023-01-18T04:37:31.175Z,8.60
2023-01-18T04:40:00.385Z,7.13
2023-01-18T04:42:28.037Z,8.52
2023-01-18T04:44:56.365Z,7.85
2023-01-18T04:47:24.035Z,6.93
2023-01-18T04:49:51.551Z,8.85
2023-01-18T04:52:19.356Z,10.30
2023-01-18T04:54:47.315Z,7.95
2023-01-18T04:57:16.185Z,7.47
2023-01-18T04:59:46.007Z,6.60
2023-01-18T05:02:15.401Z,7.45
2023-01-18T05:04:46.101Z,6.28
2023-01-18T05:07:14.766Z,7.45
2023-01-18T05:09:42.392Z,9.00
2023-01-18T05:12:10.014Z,9.93
2023-01-18T05:14:39.531Z,10.00
2023-01-18T05:17:07.407Z,9.57
2023-01-18T05:19:34.967Z,7.85
2023-01-18T05:22:02.777Z,8.32
2023-01-18T05:24:31.252Z,7.17
2023-01-18T05:26:58.813Z,8.48
2023-01-18T05:29:26.487Z,6.75
2023-01-18T05:31:55.407Z,8.10
2023-01-18T05:34:23.508Z,7.32
2023-01-18T05:36:51.160Z,7.90
2023-01-18T05:39:18.794Z,9.10
2023-01-18T05:41:46.356Z,7.07
2023-01-18T05:44:14.122Z,10.38
2023-01-18T05:46:42.154Z,6.55
2023-01-18T05:49:12.489Z,6.67
2023-01-18T05:51:40.271Z,6.57
2023-01-18T05:54:07.961Z,7.00
2023-01-18T05:56:35.676Z,4.72
2023-01-18T05:59:03.273Z,7.00
2023-01-18T06:01:30.933Z,5.30
2023-01-18T06:03:58.562Z,5.75
2023-01-18T06:06:28.681Z,6.43
2023-01-18T06:08:56.385Z,5.18
2023-01-18T06:11:23.992Z,4.95
2023-01-18T06:13:52.270Z,6.37
2023-01-18T06:16:20.296Z,5.22
2023-01-18T06:18:47.884Z,5.22
2023-01-18T06:21:15.998Z,4.55
2023-01-18T06:23:45.185Z,3.83
2023-01-18T06:26:12.703Z,6.00
2023-01-18T06:28:40.304Z,4.00
2023-01-18T06:31:08.552Z,4.85
2023-01-18T06:33:36.105Z,9.60
2023-01-18T06:36:03.944Z,4.05
2023-01-18T06:38:31.643Z,6.60
2023-01-18T06:41:00.542Z,4.50
2023-01-18T06:43:28.225Z,7.97
2023-01-18T06:45:56.242Z,4.53
2023-01-18T06:48:24.020Z,5.53
2023-01-18T06:50:53.266Z,5.00
2023-01-18T06:53:21.925Z,7.20
2023-01-18T06:55:56.858Z,5.60
2023-01-18T06:58:26.973Z,6.68
2023-01-18T07:00:58.087Z,5.07
2023-01-18T07:03:27.615Z,4.70
2023-01-18T07:05:55.663Z,6.53
2023-01-18T07:08:23.712Z,3.92
2023-01-18T07:10:53.189Z,4.75
2023-01-18T07:13:21.408Z,5.80
2023-01-18T07:15:56.576Z,5.57
2023-01-18T07:18:24.321Z,8.43
2023-01-18T07:20:57.375Z,3.15
2023-01-18T07:23:25.164Z,5.63
2023-01-18T07:25:58.736Z,8.77
2023-01-18T07:28:26.558Z,6.23
2023-01-18T07:30:55.447Z,8.27
2023-01-18T07:33:23.277Z,5.45
2023-01-18T07:35:52.671Z,5.28
2023-01-18T07:38:20.315Z,6.22
2023-01-18T07:40:48.057Z,6.47
2023-01-18T07:43:16.263Z,4.35
2023-01-18T07:45:43.868Z,5.93
2023-01-18T07:48:13.327Z,8.95
2023-01-18T07:50:41.012Z,7.88
2023-01-18T07:53:09.269Z,4.73
2023-01-18T07:55:38.826Z,4.50
2023-01-18T07:58:06.467Z,4.68
2023-01-18T08:00:34.718Z,8.93
2023-01-18T08:03:02.850Z,3.92
2023-01-18T08:05:34.670Z,5.10
2023-01-18T08:08:02.468Z,4.97
2023-01-18T08:10:31.473Z,4.57
2023-01-18T08:12:59.918Z,8.35
2023-01-18T08:15:29.412Z,5.55
2023-01-18T08:17:57.341Z,5.33
2023-01-18T08:20:25.056Z,3.88
2023-01-18T08:22:58.998Z,4.32
2023-01-18T08:25:29.683Z,4.60
2023-01-18T08:27:59.803Z,5.32
2023-01-18T08:30:28.220Z,4.73
2023-01-18T08:32:57.696Z,10.80
2023-01-18T08:35:26.851Z,7.13
2023-01-18T08:37:54.562Z,3.00
2023-01-18T08:40:24.843Z,6.55
2023-01-18T08:42:56.936Z,4.97
2023-01-18T08:45:24.892Z,4.20
2023-01-18T08:47:56.626Z,3.78
2023-01-18T08:50:24.364Z,3.95
2023-01-18T08:52:52.491Z,6.85
2023-01-18T08:55:20.405Z,8.83
2023-01-18T08:57:49.453Z,10.80
2023-01-18T09:00:17.519Z,4.72
2023-01-18T09:02:45.919Z,7.22
2023-01-18T09:05:17.023Z,6.75
2023-01-18T09:07:45.332Z,5.43
2023-01-18T09:10:13.101Z,5.85
2023-01-18T09:12:40.774Z,8.52
2023-01-18T09:15:10.514Z,5.43
2023-01-18T09:17:38.124Z,9.40
2023-01-18T09:20:09.667Z,5.30
2023-01-18T09:22:37.549Z,4.65
2023-01-18T09:25:05.779Z,5.53
2023-01-18T09:27:33.405Z,4.75
2023-01-18T09:30:02.015Z,5.70
2023-01-18T09:32:31.337Z,9.90
2023-01-18T09:35:00.909Z,10.90
2023-01-18T09:37:28.794Z,4.80
2023-01-18T09:39:56.378Z,6.00
2023-01-18T09:42:25.043Z,11.02
2023-01-18T09:44:54.168Z,7.50
2023-01-18T09:47:24.596Z,5.20
2023-01-18T09:49:56.631Z,4.32
2023-01-18T09:52:28.986Z,4.90
2023-01-18T09:55:01.307Z,4.75
2023-01-18T09:57:35.675Z,5.57
2023-01-18T10:00:04.931Z,7.60
2023-01-18T10:02:39.284Z,6.22
2023-01-18T10:05:11.814Z,5.35
2023-01-18T10:07:49.913Z,4.40
2023-01-18T10:10:19.078Z,6.20
2023-01-18T10:12:49.922Z,6.18
2023-01-18T10:15:20.407Z,6.20
2023-01-18T10:17:48.663Z,5.25
2023-01-18T10:20:18.247Z,5.10
2023-01-18T10:22:48.091Z,3.90
2023-01-18T10:25:16.597Z,6.45
2023-01-18T10:27:55.115Z,5.93
2023-01-18T10:30:30.804Z,8.02
2023-01-18T10:33:01.579Z,4.13
2023-01-18T10:35:32.495Z,5.90
2023-01-18T10:38:02.359Z,5.90
2023-01-18T10:40:31.958Z,5.55
2023-01-18T10:43:02.434Z,6.75
2023-01-18T10:45:31.200Z,8.43
2023-01-18T10:47:59.670Z,5.57
2023-01-18T10:50:37.278Z,5.28
2023-01-18T10:53:19.686Z,7.00
2023-01-18T10:55:52.562Z,4.03
2023-01-18T10:58:24.956Z,6.82
2023-01-18T11:00:54.807Z,6.00
2023-01-18T11:03:23.342Z,6.68
2023-01-18T11:05:52.457Z,5.07
2023-01-18T11:08:23.572Z,4.57
2023-01-18T11:11:01.059Z,3.90
2023-01-18T11:13:31.022Z,6.30
2023-01-18T11:16:05.162Z,6.07
2023-01-18T11:18:32.826Z,5.72
2023-01-18T11:21:01.956Z,3.40
2023-01-18T11:23:32.917Z,6.10
2023-01-18T11:26:01.889Z,5.20
2023-01-18T11:28:35.418Z,4.90
2023-01-18T11:31:08.212Z,3.60
2023-01-18T11:33:36.534Z,2.45
2023-01-18T11:36:06.928Z,6.05
2023-01-18T11:38:35.453Z,3.67
2023-01-18T11:41:04.777Z,3.63
2023-01-18T11:43:34.416Z,2.95
2023-01-18T11:46:07.184Z,2.03
2023-01-18T11:48:37.955Z,3.28
2023-01-18T11:51:10.121Z,4.17
2023-01-18T11:53:43.639Z,3.08
2023-01-18T11:56:14.795Z,5.78
2023-01-18T11:58:42.531Z,3.92
2023-01-18T12:01:23.949Z,3.05
2023-01-18T12:03:57.790Z,3.43
2023-01-18T12:06:33.691Z,2.00
2023-01-18T12:09:04.878Z,2.47
2023-01-18T12:11:46.220Z,3.95
2023-01-18T12:14:19.068Z,3.25
2023-01-18T12:17:00.934Z,1.80
2023-01-18T12:19:45.200Z,3.03
2023-01-18T12:22:27.529Z,4.90
2023-01-18T12:25:08.399Z,3.25
2023-01-18T12:27:40.526Z,1.88
2023-01-18T12:30:23.423Z,2.97
2023-01-18T12:33:02.402Z,2.90
2023-01-18T12:35:39.547Z,3.67
2023-01-18T12:38:15.565Z,5.13
2023-01-18T12:40:47.663Z,2.22
2023-01-18T12:43:21.723Z,2.00
2023-01-18T12:45:53.696Z,2.85
2023-01-18T12:48:24.744Z,3.25
2023-01-18T12:50:56.657Z,5.22
2023-01-18T12:53:32.015Z,3.97
2023-01-18T12:56:04.055Z,3.53
2023-01-18T12:58:31.919Z,3.28
2023-01-18T13:01:02.504Z,5.22
2023-01-18T13:03:32.791Z,5.82
2023-01-18T13:06:02.264Z,2.90
2023-01-18T13:08:40.299Z,5.87
2023-01-18T13:11:09.991Z,4.57
2023-01-18T13:13:38.559Z,3.30
2023-01-18T13:16:19.846Z,4.97
2023-01-18T13:18:50.909Z,3.08
2023-01-18T13:21:25.196Z,5.37
2023-01-18T13:24:00.812Z,3.60
2023-01-18T13:26:29.850Z,2.10
2023-01-18T13:29:16.671Z,2.63
2023-01-18T13:31:44.546Z,3.22
2023-01-18T13:34:25.355Z,4.53
2023-01-18T13:37:02.433Z,3.17
2023-01-18T13:39:46.234Z,2.30
2023-01-18T13:42:40.197Z,4.82
2023-01-18T13:45:14.688Z,4.50
2023-01-18T13:47:47.375Z,5.70
2023-01-18T13:50:34.392Z,4.32
2023-01-18T13:53:26.435Z,3.03
2023-01-18T13:56:10.277Z,3.78
2023-01-18T13:58:45.367Z,1.95
2023-01-18T14:01:23.187Z,3.53
2023-01-18T14:03:52.215Z,4.20
2023-01-18T14:06:25.486Z,3.63
2023-01-18T14:08:55.072Z,3.50
2023-01-18T14:11:25.267Z,6.80
2023-01-18T14:14:08.587Z,5.07
2023-01-18T14:16:38.025Z,7.68
2023-01-18T14:19:16.618Z,2.45
2023-01-18T14:21:53.959Z,2.80
2023-01-18T14:24:36.263Z,5.03
2023-01-18T14:27:05.729Z,5.00
2023-01-18T14:29:37.830Z,5.03
2023-01-18T14:32:07.644Z,2.85
2023-01-18T14:34:37.112Z,4.20
2023-01-18T14:37:05.296Z,1.73
2023-01-18T14:39:33.268Z,5.00
2023-01-18T14:42:02.975Z,3.50
2023-01-18T14:44:56.336Z,4.53
2023-01-18T14:47:27.629Z,3.15
2023-01-18T14:49:55.869Z,3.30
2023-01-18T14:52:28.778Z,6.23
2023-01-18T14:54:56.815Z,4.75
2023-01-18T14:57:25.134Z,5.75
2023-01-18T14:59:56.590Z,4.40
2023-01-18T15:02:28.973Z,4.28
2023-01-18T15:05:10.563Z,5.53
2023-01-18T15:07:39.227Z,3.58
2023-01-18T15:10:07.298Z,2.05
2023-01-18T15:12:35.026Z,3.10
2023-01-18T15:15:06.473Z,5.53
2023-01-18T15:17:35.848Z,9.77
2023-01-18T15:20:05.780Z,6.22
2023-01-18T15:22:35.939Z,5.60
2023-01-18T15:25:03.676Z,5.03
2023-01-18T15:27:32.726Z,7.68
2023-01-18T15:30:02.334Z,7.03
2023-01-18T15:32:32.705Z,28.60
2023-01-18T15:35:01.113Z,17.30
2023-01-18T15:37:30.968Z,9.45
2023-01-18T15:40:00.207Z,6.00
2023-01-18T15:42:29.786Z,7.70
2023-01-18T15:44:59.064Z,5.85
2023-01-18T15:47:28.774Z,3.72
2023-01-18T15:49:58.754Z,7.90
2023-01-18T15:52:37.683Z,8.45
2023-01-18T15:55:06.648Z,6.37
2023-01-18T15:57:35.600Z,7.45
2023-01-18T16:00:03.951Z,9.25
2023-01-18T16:02:32.083Z,6.78
2023-01-18T16:05:11.212Z,7.57
2023-01-18T16:07:41.771Z,15.57
2023-01-18T16:10:10.496Z,13.30
2023-01-18T16:12:38.185Z,13.60
2023-01-18T16:15:06.282Z,9.02
2023-01-18T16:17:37.008Z,7.28
2023-01-18T16:20:07.196Z,9.40
2023-01-18T16:22:38.339Z,10.50
2023-01-18T16:25:11.625Z,11.15
2023-01-18T16:27:47.821Z,8.90
2023-01-18T16:30:20.055Z,5.00
2023-01-18T16:32:51.134Z,4.17
2023-01-18T16:35:20.492Z,7.55
2023-01-18T16:37:50.162Z,10.50
2023-01-18T16:40:18.648Z,12.18
2023-01-18T16:42:57.171Z,16.25
2023-01-18T16:45:24.906Z,7.57
2023-01-18T16:47:52.461Z,5.40
2023-01-18T16:50:20.782Z,5.32
2023-01-18T16:52:50.496Z,7.35
2023-01-18T16:55:19.186Z,4.45
2023-01-18T16:57:47.147Z,5.10
2023-01-18T17:00:17.043Z,5.88
2023-01-18T17:02:47.177Z,7.55
2023-01-18T17:05:15.836Z,5.30
2023-01-18T17:07:43.790Z,5.18
2023-01-18T17:10:18.453Z,5.37
2023-01-18T17:12:47.102Z,5.78
2023-01-18T17:15:15.676Z,3.80
2023-01-18T17:17:44.596Z,6.32
2023-01-18T17:20:16.502Z,4.78
2023-01-18T17:22:44.474Z,4.60
2023-01-18T17:25:12.124Z,5.03
2023-01-18T17:27:41.230Z,7.00
2023-01-18T17:30:09.926Z,6.13
2023-01-18T17:32:37.671Z,8.45
2023-01-18T17:35:06.347Z,5.00
2023-01-18T17:37:34.305Z,3.85
2023-01-18T17:40:19.746Z,7.93
2023-01-18T17:42:52.684Z,11.40
2023-01-18T17:45:20.976Z,4.65
2023-01-18T17:47:48.487Z,5.53
2023-01-18T17:50:21.621Z,5.82
2023-01-18T17:52:49.248Z,7.47
2023-01-18T17:55:21.531Z,9.43
2023-01-18T17:57:54.951Z,4.38
2023-01-18T18:00:22.695Z,7.77
2023-01-18T18:02:51.857Z,10.90
2023-01-18T18:05:19.868Z,7.22
2023-01-18T18:07:49.506Z,8.73
2023-01-18T18:10:17.655Z,11.10
2023-01-18T18:12:45.356Z,6.23
2023-01-18T18:15:14.497Z,9.18
2023-01-18T18:17:42.046Z,7.35
2023-01-18T18:20:11.245Z,7.22
2023-01-18T18:22:39.466Z,11.38
2023-01-18T18:25:07.921Z,8.50
2023-01-18T18:27:45.381Z,8.30
2023-01-18T18:30:15.271Z,12.57
2023-01-18T18:32:42.895Z,8.80
2023-01-18T18:35:24.989Z,10.40
2023-01-18T18:37:54.273Z,8.10
2023-01-18T18:40:22.363Z,6.72
2023-01-18T18:43:01.311Z,7.70
2023-01-18T18:45:31.170Z,7.88
2023-01-18T18:47:59.726Z,7.40
2023-01-18T18:50:27.369Z,11.27
2023-01-18T18:52:57.833Z,8.50
2023-01-18T18:55:26.478Z,9.15
2023-01-18T18:57:54.361Z,12.93
2023-01-18T19:00:22.251Z,12.50
2023-01-18T19:02:53.414Z,8.80
2023-01-18T19:05:21.898Z,8.38
2023-01-18T19:07:51.930Z,16.20
2023-01-18T19:10:20.018Z,9.73
2023-01-18T19:12:47.813Z,13.02
2023-01-18T19:15:15.448Z,12.30
2023-01-18T19:17:42.953Z,10.73
2023-01-18T19:20:13.935Z,11.65
2023-01-18T19:22:41.682Z,10.25
2023-01-18T19:25:09.782Z,10.07
2023-01-18T19:27:37.780Z,9.60
2023-01-18T19:30:10.660Z,10.13
2023-01-18T19:32:38.654Z,10.55
2023-01-18T19:35:06.492Z,12.23
2023-01-18T19:37:35.659Z,10.70
2023-01-18T19:40:05.086Z,9.03
2023-01-18T19:42:32.666Z,9.73
2023-01-18T19:45:02.420Z,7.63
2023-01-18T19:47:30.040Z,14.10
2023-01-18T19:49:57.700Z,11.30
2023-01-18T19:52:25.437Z,5.67
2023-01-18T19:54:54.373Z,11.30
2023-01-18T19:57:22.043Z,7.63
2023-01-18T19:59:49.602Z,6.53
2023-01-18T20:02:17.287Z,12.98
2023-01-18T20:04:47.423Z,11.20
2023-01-18T20:07:16.450Z,9.77
2023-01-18T20:09:45.196Z,12.00
2023-01-18T20:12:14.216Z,8.05
2023-01-18T20:14:42.768Z,6.05
2023-01-18T20:17:10.338Z,10.33
2023-01-18T20:19:37.946Z,5.88
2023-01-18T20:22:05.676Z,7.07
2023-01-18T20:24:33.212Z,10.70
2023-01-18T20:27:15.215Z,10.02
2023-01-18T20:29:44.980Z,8.57
2023-01-18T20:32:16.532Z,7.15
2023-01-18T20:34:46.776Z,9.02
2023-01-18T20:37:15.362Z,8.98
2023-01-18T20:39:42.890Z,7.28
2023-01-18T20:42:10.554Z,6.77
2023-01-18T20:44:41.589Z,13.18
2023-01-18T20:47:10.766Z,8.93
2023-01-18T20:49:41.336Z,5.50
2023-01-18T20:52:09.459Z,11.10
2023-01-18T20:54:38.726Z,8.67
2023-01-18T20:57:06.513Z,7.80
2023-01-18T20:59:34.375Z,9.50
2023-01-18T21:02:03.037Z,9.23
2023-01-18T21:04:32.275Z,9.60
2023-01-18T21:06:59.991Z,7.67
2023-01-18T21:09:27.870Z,10.60
2023-01-18T21:11:55.465Z,6.88
2023-01-18T21:14:23.254Z,8.75
2023-01-18T21:16:53.111Z,7.38
2023-01-18T21:19:21.727Z,10.13
2023-01-18T21:21:50.793Z,12.98
2023-01-18T21:24:18.790Z,8.10
2023-01-18T21:26:46.495Z,10.25
2023-01-18T21:29:14.256Z,9.07
2023-01-18T21:31:41.818Z,6.53
2023-01-18T21:34:09.491Z,7.47
2023-01-18T21:36:37.734Z,8.57
2023-01-18T21:39:06.653Z,10.65
2023-01-18T21:41:51.934Z,11.35
2023-01-18T21:44:37.145Z,9.87
2023-01-18T21:47:06.890Z,9.80
2023-01-18T21:50:15.958Z,10.50
2023-01-18T21:52:57.359Z,13.93
2023-01-18T21:55:26.967Z,10.55
2023-01-18T21:58:08.733Z,10.07
2023-01-18T22:00:37.633Z,12.23
2023-01-18T22:03:05.337Z,11.13
2023-01-18T22:05:33.470Z,10.95
2023-01-18T22:08:02.043Z,10.75
2023-01-18T22:10:31.869Z,10.00
2023-01-18T22:12:59.533Z,9.68
2023-01-18T22:15:27.329Z,9.90
2023-01-18T22:17:54.976Z,11.45
2023-01-18T22:20:22.584Z,10.00
2023-01-18T22:22:50.450Z,12.80
2023-01-18T22:25:18.063Z,8.23
2023-01-18T22:27:48.861Z,10.38
2023-01-18T22:30:17.005Z,7.63
2023-01-18T22:32:44.514Z,10.80
2023-01-18T22:35:14.759Z,9.37
2023-01-18T22:37:42.387Z,12.38
2023-01-18T22:40:10.781Z,14.45
2023-01-18T22:42:38.546Z,8.00
2023-01-18T22:45:08.418Z,12.43
2023-01-18T22:47:35.979Z,10.93
2023-01-18T22:50:03.577Z,10.23
2023-01-18T22:52:31.250Z,9.55
2023-01-18T22:54:58.813Z,11.15
2023-01-18T22:57:26.512Z,10.55
2023-01-18T22:59:54.076Z,11.83
2023-01-18T23:02:23.109Z,11.82
2023-01-18T23:04:50.692Z,8.80
2023-01-18T23:07:18.478Z,10.60
2023-01-18T23:09:46.040Z,11.82
2023-01-18T23:12:13.798Z,9.63
2023-01-18T23:15:13.149Z,10.07
2023-01-18T23:17:43.339Z,11.68
2023-01-18T23:20:13.544Z,11.43
2023-01-18T23:22:41.136Z,14.90
2023-01-18T23:25:09.626Z,10.67
2023-01-18T23:27:37.186Z,14.65
2023-01-18T23:30:05.131Z,12.85
2023-01-18T23:32:32.822Z,9.82
2023-01-18T23:35:01.959Z,13.80
2023-01-18T23:37:29.540Z,11.43
2023-01-18T23:40:14.750Z,11.00
2023-01-18T23:43:01.106Z,9.48
2023-01-18T23:45:46.363Z,12.50
2023-01-18T23:48:38.205Z,9.68
2023-01-18T23:51:28.196Z,15.07
2023-01-18T23:54:15.683Z,11.18
2023-01-18T23:56:43.418Z,13.20
2023-01-18T23:59:11.118Z,10.98
